Con. actuales
Clear
Conditions



PressiĆ³n:
1009.92 (hPa) - 29.82 (inHG)
Visibilidad:

9.0 (km) - 5.6 (miles)
Base de Nubes

Despejado (Mts) - Despejado (Feets)
   Temperatura
29  °C
Temperatura
15  °C
43  %
 Humedad
   Velocidad del Viento
27  km/h
15  kts
17  mph
7.6  m/s
   Wind Direction
N
45°
E
90°
135°
S
180°
225°
O
270°
315°
 160°

Sur Sur
Este
   Airport Data
SAEZ
Minister Pistarini International Airport
Metar :SAEZ 081445Z 16015G26KT 9000 NSC 29/15 Q1010 NOSIG
Wed 8th February 11:45 am
   Raw Metar Info
Raw METAR is the most common format in the world for the transmission of observational weather data. It is highly standardized through the International Civil Aviation Organization (ICAO), which allows it to be understood throughout most of the world.
   API Info
Data Provided by
https://www.checkwx.com/weather/SAEZ

Aviation Weather providing METAR, TAF, AIRMET, SIGMET and OUTLOOK Weather Reports
   © Info
CSS/SVG/PHP scripts were developed by weather34.com for use in the weather34 template © 2015-2023

Guide Info provided by Metar-Wikipedia